Time;durP1;ratioP1;P1;durP2;ratioP2;P2;SDS_P1;SDS_P2;PMS_P1;PMS_P2;Temp;Humidity;BMP_temperature;BMP_pressure;BME280_temperature;BME280_humidity;BME280_pressure;Samples;Min_cycle;Max_cycle;Signal;HPM_P1;HPM_P2
2023/05/23 00:01:20;;;;;;;8.47;7.60;;;;;;;15.50;100.00;98896.88;5067001;28;20279;-78
2023/05/23 00:03:48;;;;;;;8.40;7.70;;;;;;;15.42;100.00;98893.63;5074532;28;20185;-78
2023/05/23 00:06:20;;;;;;;8.47;7.70;;;;;;;15.44;100.00;98893.38;5062868;28;20250;-78
2023/05/23 00:08:47;;;;;;;9.87;7.57;;;;;;;15.37;100.00;98890.13;5056946;28;20201;-78
2023/05/23 00:11:14;;;;;;;9.47;8.43;;;;;;;15.22;100.00;98885.50;5065369;28;20262;-78
2023/05/23 00:13:41;;;;;;;10.03;8.03;;;;;;;15.24;100.00;98894.16;5068845;28;20193;-78
2023/05/23 00:16:11;;;;;;;8.93;8.13;;;;;;;15.18;100.00;98895.22;5074587;28;20227;-78
2023/05/23 00:18:41;;;;;;;9.40;8.60;;;;;;;15.22;100.00;98887.38;5060826;28;20201;-78
2023/05/23 00:21:08;;;;;;;9.30;8.43;;;;;;;15.15;100.00;98886.84;5060177;28;20243;-78
2023/05/23 00:23:35;;;;;;;8.47;7.70;;;;;;;15.12;100.00;98888.19;5065141;28;20626;-77
2023/05/23 00:26:02;;;;;;;9.30;8.40;;;;;;;14.98;100.00;98890.56;5074217;28;20189;-77
2023/05/23 00:28:29;;;;;;;9.00;8.20;;;;;;;14.94;100.00;98896.78;5072453;28;20189;-78
2023/05/23 00:30:56;;;;;;;8.90;8.10;;;;;;;14.92;100.00;98890.84;5066331;28;20196;-77
2023/05/23 00:33:23;;;;;;;9.07;8.30;;;;;;;14.81;100.00;98892.69;5059465;28;20588;-77
2023/05/23 00:35:49;;;;;;;9.40;8.50;;;;;;;14.79;100.00;98892.13;5045234;28;20233;-79
2023/05/23 00:38:16;;;;;;;8.73;8.03;;;;;;;14.67;100.00;98896.13;5067667;28;20375;-79
2023/05/23 00:40:43;;;;;;;9.57;8.70;;;;;;;14.67;100.00;98901.53;5065049;28;20186;-78
2023/05/23 00:43:11;;;;;;;9.50;8.60;;;;;;;14.60;100.00;98901.78;5071469;28;20280;-78
2023/05/23 00:45:38;;;;;;;9.43;8.47;;;;;;;14.54;100.00;98892.06;5063637;28;20204;-78
2023/05/23 00:48:05;;;;;;;9.03;8.23;;;;;;;14.56;100.00;98903.38;5065099;28;20209;-78
2023/05/23 00:50:33;;;;;;;9.77;8.83;;;;;;;14.51;100.00;98900.69;5047563;28;20201;-77
2023/05/23 00:53:00;;;;;;;9.53;8.73;;;;;;;14.46;100.00;98903.34;5061284;28;20263;-77
2023/05/23 00:55:27;;;;;;;10.00;9.00;;;;;;;14.46;100.00;98898.72;5068415;28;20197;-78
2023/05/23 00:57:55;;;;;;;9.20;8.33;;;;;;;14.47;100.00;98907.63;5068824;28;20193;-78
2023/05/23 01:00:24;;;;;;;8.93;8.13;;;;;;;14.37;100.00;98907.59;5048475;28;20201;-78
2023/05/23 01:02:51;;;;;;;9.93;8.93;;;;;;;14.33;100.00;98893.78;5068728;28;20201;-78
2023/05/23 01:05:21;;;;;;;9.00;8.20;;;;;;;14.29;100.00;98899.97;5067033;28;20192;-78
2023/05/23 01:07:49;;;;;;;9.60;8.57;;;;;;;14.27;100.00;98902.94;5053646;28;20214;-78
2023/05/23 01:10:18;;;;;;;9.30;8.30;;;;;;;14.24;100.00;98898.06;5059301;28;20212;-78
2023/05/23 01:13:03;;;;;;;9.77;8.87;;;;;;;14.23;100.00;98899.13;5056802;28;20201;-78
2023/05/23 01:15:37;;;;;;;10.60;9.60;;;;;;;14.07;100.00;98892.84;5065860;28;20189;-78
2023/05/23 01:18:16;;;;;;;10.00;9.10;;;;;;;14.07;100.00;98900.94;5054444;28;20210;-78
2023/05/23 01:20:48;;;;;;;10.07;9.20;;;;;;;14.13;100.00;98898.28;5062238;28;20199;-78
2023/05/23 01:23:27;;;;;;;10.37;9.47;;;;;;;14.07;100.00;98902.81;5066210;28;20630;-78
2023/05/23 01:26:25;;;;;;;10.43;9.23;;;;;;;14.06;100.00;98904.69;5071647;28;20188;-77
2023/05/23 01:28:54;;;;;;;10.20;9.30;;;;;;;13.99;100.00;98904.13;5055630;28;20193;-78
2023/05/23 01:31:23;;;;;;;9.80;8.97;;;;;;;13.94;100.00;98896.00;5067812;28;20672;-78
2023/05/23 01:33:52;;;;;;;10.17;9.27;;;;;;;13.94;100.00;98895.19;5063185;28;20212;-78
2023/05/23 01:36:19;;;;;;;10.03;9.03;;;;;;;13.85;100.00;98891.34;5060449;28;20212;-78
2023/05/23 01:38:46;;;;;;;10.03;9.07;;;;;;;13.77;100.00;98900.69;5060938;28;20200;-78
2023/05/23 01:41:13;;;;;;;10.60;9.40;;;;;;;13.72;100.00;98891.78;5061978;28;20190;-78
2023/05/23 01:43:39;;;;;;;9.50;8.70;;;;;;;13.75;100.00;98894.78;5071563;28;20205;-78
2023/05/23 01:46:06;;;;;;;9.70;8.80;;;;;;;13.69;100.00;98885.03;5059487;28;20194;-78
2023/05/23 01:48:33;;;;;;;9.53;8.73;;;;;;;13.62;100.00;98881.75;5053037;28;20651;-78
2023/05/23 01:51:00;;;;;;;9.47;8.67;;;;;;;13.57;100.00;98873.66;5059386;28;20181;-78
2023/05/23 01:53:27;;;;;;;10.10;9.17;;;;;;;13.48;100.00;98878.69;5037533;28;20201;-78
2023/05/23 01:55:54;;;;;;;10.27;9.30;;;;;;;13.39;100.00;98884.78;5052530;28;20615;-78
2023/05/23 01:58:22;;;;;;;10.10;9.30;;;;;;;13.34;100.00;98879.38;5052226;28;20652;-78
2023/05/23 02:00:48;;;;;;;10.80;9.70;;;;;;;13.35;100.00;98883.66;5035249;28;20236;-78
2023/05/23 02:03:15;;;;;;;10.67;9.60;;;;;;;13.40;100.00;98875.63;5036485;28;20748;-81
2023/05/23 02:05:42;;;;;;;10.20;9.30;;;;;;;13.37;100.00;98882.34;5055471;28;20187;-81
2023/05/23 02:08:10;;;;;;;9.87;9.07;;;;;;;13.33;100.00;98869.66;5054864;28;20216;-79
2023/05/23 02:10:36;;;;;;;10.87;9.90;;;;;;;13.38;100.00;98867.84;5056512;28;20267;-81
2023/05/23 02:13:04;;;;;;;10.40;9.50;;;;;;;13.32;100.00;98879.59;5057536;28;20202;-80
2023/05/23 02:15:30;;;;;;;11.00;10.00;;;;;;;13.34;100.00;98879.38;5056247;28;20192;-81
2023/05/23 02:17:57;;;;;;;10.63;9.73;;;;;;;13.31;100.00;98874.47;5051977;28;20223;-80
2023/05/23 02:20:25;;;;;;;10.73;9.83;;;;;;;13.20;100.00;98879.75;5035142;28;20614;-79
2023/05/23 02:22:52;;;;;;;11.10;10.00;;;;;;;13.06;100.00;98870.47;5032384;28;20224;-80
2023/05/23 02:25:18;;;;;;;10.50;9.60;;;;;;;13.00;100.00;98867.97;5054786;28;20623;-78
2023/05/23 02:27:45;;;;;;;10.63;9.73;;;;;;;13.08;100.00;98865.63;5062819;28;20208;-80
2023/05/23 02:30:12;;;;;;;10.67;9.53;;;;;;;13.02;100.00;98861.25;5072146;28;20648;-80
2023/05/23 02:32:39;;;;;;;11.07;10.07;;;;;;;12.98;100.00;98862.00;5064157;28;20279;-80
2023/05/23 02:35:07;;;;;;;10.37;9.47;;;;;;;12.98;100.00;98860.16;5052941;28;20210;-80
2023/05/23 02:37:33;;;;;;;10.67;9.67;;;;;;;12.96;100.00;98862.28;5052724;28;20204;-80
2023/05/23 02:40:00;;;;;;;10.63;9.73;;;;;;;12.95;100.00;98852.59;5044007;28;20202;-80
2023/05/23 02:42:27;;;;;;;11.20;10.10;;;;;;;12.93;100.00;98857.41;5054005;28;20186;-80
2023/05/23 02:44:54;;;;;;;10.73;9.83;;;;;;;12.83;100.00;98862.66;5062500;28;20667;-80
2023/05/23 02:47:21;;;;;;;11.23;10.27;;;;;;;12.76;100.00;98852.13;5059171;28;20319;-80
2023/05/23 02:49:48;;;;;;;10.70;9.80;;;;;;;12.81;100.00;98854.06;5062203;28;20209;-80
2023/05/23 02:52:16;;;;;;;11.20;10.30;;;;;;;12.75;100.00;98860.44;5052301;28;20203;-80
2023/05/23 02:54:43;;;;;;;11.23;10.13;;;;;;;12.70;100.00;98853.13;5053843;28;20273;-80
2023/05/23 02:57:09;;;;;;;11.37;10.23;;;;;;;12.67;100.00;98847.44;5037250;28;20225;-81
2023/05/23 02:59:40;;;;;;;11.00;10.03;;;;;;;12.68;100.00;98844.53;5057050;28;20167;-81
2023/05/23 03:02:07;;;;;;;10.37;9.37;;;;;;;12.63;100.00;98839.09;5055230;28;20231;-81
2023/05/23 03:04:34;;;;;;;11.33;10.40;;;;;;;12.64;100.00;98848.78;5038723;28;20673;-81
2023/05/23 03:07:00;;;;;;;10.73;9.73;;;;;;;12.64;100.00;98848.78;5054697;28;20191;-81
2023/05/23 03:09:28;;;;;;;10.77;9.87;;;;;;;12.67;100.00;98855.50;5056452;28;20564;-79
2023/05/23 03:11:55;;;;;;;12.07;10.90;;;;;;;12.73;100.00;98852.63;5053308;28;20681;-78
2023/05/23 03:14:21;;;;;;;11.57;10.47;;;;;;;12.68;100.00;98844.53;5070292;28;20257;-78
2023/05/23 03:16:48;;;;;;;11.17;10.10;;;;;;;12.67;100.00;98859.00;5071553;28;20214;-80
2023/05/23 03:19:15;;;;;;;11.67;10.67;;;;;;;12.69;100.00;98842.66;5063382;28;20199;-79
2023/05/23 03:21:43;;;;;;;11.20;10.20;;;;;;;12.73;100.00;98849.13;5063741;28;20578;-79
2023/05/23 03:24:09;;;;;;;12.60;10.50;;;;;;;12.75;100.00;98852.38;5067062;28;20726;-80
2023/05/23 03:26:36;;;;;;;11.50;10.30;;;;;;;12.74;100.00;98850.75;5073947;28;20205;-80
2023/05/23 03:29:02;;;;;;;11.63;10.53;;;;;;;12.77;100.00;98861.00;5064541;28;20218;-80
2023/05/23 03:31:29;;;;;;;11.27;10.27;;;;;;;12.81;100.00;98867.50;5064576;28;20231;-80
2023/05/23 03:33:56;;;;;;;11.93;10.93;;;;;;;12.89;100.00;98868.91;5055380;28;20560;-80
2023/05/23 03:36:24;;;;;;;12.00;11.00;;;;;;;12.97;100.00;98863.88;5063549;28;20259;-80
2023/05/23 03:38:52;;;;;;;11.73;10.63;;;;;;;12.96;100.00;98858.78;5075063;28;20194;-80
2023/05/23 03:41:19;;;;;;;11.50;10.50;;;;;;;12.98;100.00;98865.53;5065153;28;20206;-80
2023/05/23 03:43:45;;;;;;;10.67;9.77;;;;;;;13.08;100.00;98859.44;5057600;28;20211;-80
2023/05/23 03:46:12;;;;;;;11.47;10.43;;;;;;;13.15;100.00;98866.28;5067595;28;20200;-80
2023/05/23 03:48:40;;;;;;;10.47;9.57;;;;;;;13.23;100.00;98863.13;5025967;28;20211;-80
2023/05/23 03:51:07;;;;;;;11.83;10.77;;;;;;;13.25;100.00;98870.91;5057643;28;20207;-80
2023/05/23 03:53:34;;;;;;;11.60;10.43;;;;;;;13.23;100.00;98871.19;5066403;28;20677;-80
2023/05/23 03:56:03;;;;;;;11.93;10.70;;;;;;;13.26;100.00;98877.94;5050221;28;20302;-80
2023/05/23 03:58:30;;;;;;;11.80;10.70;;;;;;;13.46;100.00;98888.88;5060592;28;20293;-80
2023/05/23 04:01:01;;;;;;;11.53;10.30;;;;;;;13.77;100.00;98895.31;5072886;28;20297;-80
2023/05/23 04:03:31;;;;;;;11.37;10.47;;;;;;;14.04;100.00;98884.47;5062457;28;20268;-80
2023/05/23 04:05:59;;;;;;;11.07;10.13;;;;;;;14.29;100.00;98889.19;5037727;28;20207;-80
2023/05/23 04:08:28;;;;;;;11.03;10.03;;;;;;;14.39;100.00;98881.19;5054260;28;20697;-80
2023/05/23 04:10:55;;;;;;;10.57;9.47;;;;;;;14.32;100.00;98888.69;5061741;28;20254;-81
2023/05/23 04:13:25;;;;;;;10.90;9.90;;;;;;;14.27;100.00;98892.16;5041417;28;20208;-80
2023/05/23 04:15:51;;;;;;;10.57;9.50;;;;;;;14.41;100.00;98897.94;5067407;28;20286;-81
2023/05/23 04:18:19;;;;;;;10.03;9.03;;;;;;;14.46;100.00;98893.34;5050887;28;20189;-80
2023/05/23 04:20:46;;;;;;;10.50;9.43;;;;;;;14.52;100.00;98889.59;5061558;28;20197;-80
2023/05/23 04:23:12;;;;;;;10.37;9.30;;;;;;;14.62;100.00;98896.94;5075465;28;20601;-80
2023/05/23 04:25:43;;;;;;;10.53;9.50;;;;;;;14.64;100.00;98891.28;5065992;28;20198;-80
2023/05/23 04:28:36;;;;;;;10.80;9.70;;;;;;;14.66;100.00;98895.31;5061240;28;20221;-80
2023/05/23 04:31:03;;;;;;;10.40;9.47;;;;;;;14.69;100.00;98892.13;5053980;28;20293;-81
2023/05/23 04:33:36;;;;;;;10.13;9.33;;;;;;;14.79;100.00;98889.44;5054144;28;20236;-79
2023/05/23 04:36:03;;;;;;;11.07;10.07;;;;;;;14.92;100.00;98888.97;5037940;28;20288;-80
2023/05/23 04:38:32;;;;;;;10.47;9.57;;;;;;;15.09;100.00;98885.22;5053596;28;20199;-80
2023/05/23 04:40:59;;;;;;;11.20;10.20;;;;;;;15.28;100.00;98889.84;5054921;28;20695;-80
2023/05/23 04:43:57;;;;;;;11.67;10.67;;;;;;;15.50;100.00;98886.88;5054938;28;20194;-80
2023/05/23 04:46:27;;;;;;;11.77;10.57;;;;;;;15.73;100.00;98890.97;5055848;28;20613;-80
2023/05/23 04:49:11;;;;;;;11.00;9.90;;;;;;;15.98;100.00;98888.25;5055189;28;20684;-80
2023/05/23 04:51:38;;;;;;;11.13;10.13;;;;;;;16.18;100.00;98888.22;5054629;28;20189;-80
2023/05/23 04:54:26;;;;;;;10.83;9.83;;;;;;;16.43;100.00;98891.91;5041231;28;20194;-78
2023/05/23 04:56:54;;;;;;;11.17;10.10;;;;;;;16.64;100.00;98893.53;5054246;28;20239;-78
2023/05/23 04:59:22;;;;;;;11.33;10.23;;;;;;;16.84;100.00;98889.91;5053868;28;20198;-78
2023/05/23 05:01:49;;;;;;;10.60;9.70;;;;;;;17.11;100.00;98898.44;5053305;28;20877;-78
2023/05/23 05:04:17;;;;;;;10.90;9.97;;;;;;;17.35;100.00;98901.25;5053367;28;20276;-78
2023/05/23 05:06:44;;;;;;;10.60;9.60;;;;;;;17.47;100.00;98897.09;5053080;28;20194;-79
2023/05/23 05:09:11;;;;;;;10.83;9.93;;;;;;;17.65;100.00;98890.22;5036561;28;20206;-78
2023/05/23 05:11:37;;;;;;;11.23;10.20;;;;;;;17.84;100.00;98896.56;5054196;28;20197;-77
2023/05/23 05:14:05;;;;;;;11.23;9.40;;;;;;;18.03;100.00;98902.91;5053257;28;20186;-78
2023/05/23 05:16:33;;;;;;;10.43;9.53;;;;;;;18.19;100.00;98894.63;5052884;28;20200;-80
2023/05/23 05:19:00;;;;;;;10.30;9.50;;;;;;;18.29;100.00;98887.16;5054541;28;20639;-78
2023/05/23 05:21:27;;;;;;;10.93;10.03;;;;;;;18.44;100.00;98891.63;5052961;28;20289;-78
2023/05/23 05:23:54;;;;;;;10.63;9.63;;;;;;;18.59;100.00;98888.78;5052916;28;20200;-80
2023/05/23 05:26:20;;;;;;;10.33;9.43;;;;;;;18.78;100.00;98895.06;5053131;28;20672;-80
2023/05/23 05:28:48;;;;;;;10.60;9.67;;;;;;;18.89;100.00;98884.88;5053033;28;20220;-80
2023/05/23 05:31:15;;;;;;;10.87;9.80;;;;;;;19.11;100.00;98887.03;5054099;28;20231;-83
2023/05/23 05:33:44;;;;;;;11.03;10.03;;;;;;;19.22;100.00;98888.50;5052627;28;20665;-81
2023/05/23 05:36:13;;;;;;;11.20;10.17;;;;;;;19.42;100.00;98885.47;5052264;28;20261;-81
2023/05/23 05:38:40;;;;;;;11.27;10.27;;;;;;;19.53;100.00;98884.25;5054801;28;20213;-81
2023/05/23 05:41:07;;;;;;;11.73;10.53;;;;;;;19.65;100.00;98890.03;5072744;28;20203;-80
2023/05/23 05:43:38;;;;;;;11.53;10.27;;;;;;;19.73;100.00;98874.97;5063206;28;20202;-81
2023/05/23 05:46:05;;;;;;;15.30;11.03;;;;;;;19.79;100.00;98885.44;5072760;28;20262;-80
2023/05/23 05:48:31;;;;;;;14.97;10.40;;;;;;;19.96;100.00;98887.63;5060556;28;20622;-80
2023/05/23 05:51:03;;;;;;;20.77;11.60;;;;;;;20.13;100.00;98895.19;5066057;28;20201;-81
2023/05/23 05:53:32;;;;;;;12.10;10.73;;;;;;;20.13;100.00;98884.31;5058793;28;20196;-80
2023/05/23 05:55:59;;;;;;;12.73;11.47;;;;;;;20.19;100.00;98896.72;5067897;28;20183;-81
2023/05/23 05:58:25;;;;;;;11.63;10.63;;;;;;;20.32;100.00;98895.16;5071244;28;20248;-80
2023/05/23 06:00:57;;;;;;;11.80;10.60;;;;;;;20.22;100.00;98888.75;5056240;28;20314;-81
2023/05/23 06:03:26;;;;;;;11.10;10.10;;;;;;;20.53;100.00;98883.56;5055279;28;20227;-80
2023/05/23 06:05:54;;;;;;;11.90;10.80;;;;;;;20.77;100.00;98885.25;5063314;28;20591;-79
2023/05/23 06:08:21;;;;;;;12.43;11.37;;;;;;;20.78;100.00;98884.16;5063915;28;20221;-80
2023/05/23 06:10:48;;;;;;;12.77;11.57;;;;;;;20.60;100.00;98878.53;5042242;28;20576;-80
2023/05/23 06:13:15;;;;;;;13.80;12.40;;;;;;;20.70;100.00;98879.44;5062173;28;20235;-79
2023/05/23 06:15:45;;;;;;;13.70;12.47;;;;;;;20.80;100.00;98888.22;5051589;28;20206;-79
2023/05/23 06:18:13;;;;;;;14.23;12.93;;;;;;;20.61;100.00;98880.16;5038286;28;20591;-80
2023/05/23 06:20:39;;;;;;;12.77;11.77;;;;;;;20.69;100.00;98883.25;5050172;28;20210;-79
2023/05/23 06:23:11;;;;;;;12.67;11.57;;;;;;;20.79;100.00;98880.34;5049790;28;20202;-79
2023/05/23 06:25:38;;;;;;;12.80;11.50;;;;;;;20.86;100.00;98880.72;5053062;28;20204;-80
2023/05/23 06:28:05;;;;;;;12.67;11.47;;;;;;;20.60;100.00;98883.16;5045991;28;20218;-80
2023/05/23 06:30:34;;;;;;;13.00;11.80;;;;;;;20.67;100.00;98884.38;5053174;28;20196;-79
2023/05/23 06:33:03;;;;;;;13.27;12.00;;;;;;;20.80;100.00;98892.84;5046560;28;20294;-79
2023/05/23 06:35:30;;;;;;;12.90;11.80;;;;;;;20.94;100.00;98885.47;5058480;28;20581;-82
2023/05/23 06:37:59;;;;;;;12.87;11.77;;;;;;;21.07;100.00;98879.19;5053834;28;20214;-79
2023/05/23 06:40:26;;;;;;;12.20;11.10;;;;;;;21.09;100.00;98875.03;5056035;28;20245;-78
2023/05/23 06:42:53;;;;;;;15.13;11.23;;;;;;;21.24;100.00;98878.53;5055905;28;20229;-80
2023/05/23 06:45:45;;;;;;;11.90;10.80;;;;;;;21.46;100.00;98884.03;5056117;28;20305;-80
2023/05/23 06:48:12;;;;;;;11.27;10.33;;;;;;;21.63;100.00;98886.09;5055978;28;20653;-79
2023/05/23 06:50:40;;;;;;;12.93;11.57;;;;;;;21.56;100.00;98880.28;5056191;28;20198;-79
2023/05/23 06:53:08;;;;;;;12.07;10.87;;;;;;;21.76;100.00;98880.56;5053127;28;20238;-79
2023/05/23 06:55:35;;;;;;;13.40;11.70;;;;;;;21.88;100.00;98875.34;5052800;28;20664;-78
2023/05/23 06:58:04;;;;;;;12.90;11.80;;;;;;;21.99;100.00;98877.84;5050416;28;20680;-79
2023/05/23 07:00:32;;;;;;;12.43;11.23;;;;;;;22.08;100.00;98879.50;5052046;28;20200;-80
2023/05/23 07:03:09;;;;;;;12.70;11.60;;;;;;;21.95;100.00;98883.13;5055210;28;20674;-81
2023/05/23 07:05:37;;;;;;;12.20;11.10;;;;;;;21.54;100.00;98872.41;5053909;28;20290;-80
2023/05/23 07:08:09;;;;;;;12.27;11.00;;;;;;;21.80;100.00;98873.38;5050707;28;20216;-79
2023/05/23 07:10:40;;;;;;;13.10;11.70;;;;;;;21.40;100.00;98874.38;5053824;28;20241;-80
2023/05/23 07:13:20;;;;;;;12.17;11.07;;;;;;;21.77;100.00;98867.75;5054166;28;20204;-80
2023/05/23 07:15:47;;;;;;;12.47;11.17;;;;;;;22.21;100.00;98870.41;5047922;28;20611;-78
2023/05/23 07:18:14;;;;;;;11.55;10.38;;;;;;;22.52;100.00;98869.59;5053426;28;20607;-80
2023/05/23 07:20:40;;;;;;;11.20;10.20;;;;;;;22.67;100.00;98867.25;5060988;28;20220;-80
2023/05/23 07:23:15;;;;;;;11.55;10.45;;;;;;;22.99;100.00;98873.44;5053097;28;20606;-80
2023/05/23 07:25:43;;;;;;;10.98;9.93;;;;;;;23.06;100.00;98871.84;5054773;28;20259;-78
2023/05/23 07:28:30;;;;;;;11.15;10.13;;;;;;;22.96;100.00;98865.88;5061506;28;20217;-78
2023/05/23 07:30:57;;;;;;;10.20;9.15;;;;;;;23.28;100.00;98868.94;5055317;28;20690;-78
2023/05/23 07:33:24;;;;;;;9.02;8.23;;;;;;;23.48;100.00;98867.53;5049587;28;20208;-78
2023/05/23 07:35:56;;;;;;;8.98;8.25;;;;;;;23.72;100.00;98867.03;5063669;28;20260;-79
2023/05/23 07:38:22;;;;;;;10.05;9.20;;;;;;;23.81;100.00;98856.06;5053639;28;20194;-78
2023/05/23 07:40:49;;;;;;;10.38;9.35;;;;;;;23.98;100.00;98862.31;5057466;28;20243;-78
2023/05/23 07:43:36;;;;;;;10.38;9.38;;;;;;;24.13;100.00;98859.03;5047974;28;20247;-78
2023/05/23 07:46:02;;;;;;;10.05;9.00;;;;;;;23.90;100.00;98857.66;5070543;28;20193;-78
2023/05/23 07:48:30;;;;;;;9.38;8.45;;;;;;;24.06;100.00;98863.44;5053702;28;20217;-78
2023/05/23 07:50:57;;;;;;;9.00;8.20;;;;;;;24.08;100.00;98852.94;5069456;28;20194;-78
2023/05/23 07:53:24;;;;;;;9.98;9.15;;;;;;;23.20;100.00;98860.75;5071942;28;20195;-78
2023/05/23 07:55:51;;;;;;;9.65;8.85;;;;;;;23.69;100.00;98856.75;5065780;28;20204;-78
2023/05/23 07:58:19;;;;;;;9.82;8.60;;;;;;;23.59;100.00;98846.94;5065336;28;20711;-78
2023/05/23 08:00:47;;;;;;;9.63;8.73;;;;;;;23.35;100.00;98854.00;5067516;28;20322;-78
2023/05/23 08:03:37;;;;;;;9.80;9.00;;;;;;;23.55;100.00;98851.47;5056515;28;20672;-78
2023/05/23 08:06:09;;;;;;;9.75;8.95;;;;;;;23.76;100.00;98854.31;5073493;28;20208;-78
2023/05/23 08:08:37;;;;;;;9.77;7.90;;;;;;;23.98;100.00;98845.88;5071935;28;20270;-80
2023/05/23 08:11:05;;;;;;;8.00;7.20;;;;;;;24.40;100.00;98846.13;5070917;28;20198;-80
2023/05/23 08:13:38;;;;;;;8.50;7.78;;;;;;;24.52;100.00;98841.53;5061374;28;20201;-80
2023/05/23 08:16:31;;;;;;;7.75;7.05;;;;;;;24.73;100.00;98847.03;5047821;28;20201;-79
2023/05/23 08:18:58;;;;;;;8.65;7.82;;;;;;;24.62;100.00;98837.63;5063337;28;20247;-79
2023/05/23 08:21:26;;;;;;;9.48;8.68;;;;;;;24.81;100.00;98845.41;5054048;28;20262;-79
2023/05/23 08:23:52;;;;;;;8.48;7.78;;;;;;;25.17;100.00;98842.09;5053282;28;20228;-79
2023/05/23 08:26:19;;;;;;;8.55;7.75;;;;;;;25.33;100.00;98834.91;5054966;28;20197;-79
2023/05/23 08:28:47;;;;;;;8.65;7.85;;;;;;;25.19;100.00;98842.59;5051827;28;20314;-80
2023/05/23 08:31:14;;;;;;;9.02;8.23;;;;;;;25.24;100.00;98836.91;5060448;28;20276;-79
2023/05/23 08:33:41;;;;;;;8.85;8.15;;;;;;;25.38;98.00;98840.94;5063642;28;20289;-80
2023/05/23 08:36:08;;;;;;;9.73;8.35;;;;;;;25.65;97.95;98842.38;5062359;28;20226;-80
2023/05/23 08:38:34;;;;;;;7.82;7.10;;;;;;;25.90;95.78;98839.72;5072808;28;20207;-80
2023/05/23 08:41:21;;;;;;;8.20;7.50;;;;;;;25.94;93.79;98838.69;5067504;28;20208;-79
2023/05/23 08:43:51;;;;;;;7.80;7.20;;;;;;;25.71;94.57;98841.00;5072896;28;20211;-79
2023/05/23 08:46:24;;;;;;;8.38;7.65;;;;;;;26.04;91.63;98840.16;5056663;28;20291;-79
2023/05/23 08:48:53;;;;;;;8.38;7.68;;;;;;;25.97;93.00;98839.94;5072370;28;20231;-80
2023/05/23 08:51:24;;;;;;;8.77;7.97;;;;;;;25.96;92.08;98836.38;5072538;28;20201;-80
2023/05/23 08:53:54;;;;;;;8.00;7.30;;;;;;;26.19;89.09;98840.31;5069845;28;20216;-80
2023/05/23 08:56:24;;;;;;;8.45;7.68;;;;;;;26.06;90.38;98829.66;5066699;28;20207;-80
2023/05/23 08:58:52;;;;;;;8.05;7.22;;;;;;;25.76;88.70;98837.25;5067803;28;20197;-80
2023/05/23 09:01:21;;;;;;;8.02;7.22;;;;;;;26.06;88.28;98835.16;5059498;28;20334;-81
2023/05/23 09:03:51;;;;;;;7.88;7.28;;;;;;;26.34;87.77;98832.59;5044725;28;20217;-82
2023/05/23 09:06:26;;;;;;;7.80;7.10;;;;;;;26.74;87.41;98833.47;5048473;28;20200;-81
2023/05/23 09:08:53;;;;;;;8.63;7.70;;;;;;;27.13;85.52;98832.75;5056864;28;20209;-80
2023/05/23 09:11:23;;;;;;;9.02;7.22;;;;;;;27.16;85.37;98842.25;5059602;28;20200;-80
2023/05/23 09:13:51;;;;;;;8.35;7.43;;;;;;;27.23;83.48;98834.22;5044304;28;20203;-81
2023/05/23 09:16:20;;;;;;;8.93;7.10;;;;;;;27.39;82.08;98826.81;5061201;28;20193;-81
2023/05/23 09:18:50;;;;;;;8.02;7.32;;;;;;;27.56;80.70;98828.50;5049550;28;20661;-80
2023/05/23 09:21:19;;;;;;;8.57;7.68;;;;;;;27.57;81.60;98830.13;5068770;28;20228;-80
2023/05/23 09:24:04;;;;;;;8.00;7.40;;;;;;;27.65;80.78;98825.59;5065461;28;20204;-81
2023/05/23 09:26:31;;;;;;;7.80;7.20;;;;;;;27.87;78.96;98827.78;5063218;28;20233;-80
2023/05/23 09:28:59;;;;;;;8.07;7.28;;;;;;;28.02;79.09;98822.31;5050562;28;20260;-82
2023/05/23 09:31:29;;;;;;;8.45;7.47;;;;;;;28.09;76.75;98823.66;5059122;28;20659;-79
2023/05/23 09:33:57;;;;;;;9.15;8.40;;;;;;;27.72;77.39;98823.03;5053379;28;20292;-80
2023/05/23 09:36:28;;;;;;;8.32;7.53;;;;;;;27.95;77.55;98819.34;5025344;28;20227;-79
2023/05/23 09:38:55;;;;;;;8.65;7.95;;;;;;;27.87;77.79;98822.28;5060663;28;20201;-80
2023/05/23 09:41:22;;;;;;;8.13;7.32;;;;;;;27.92;79.73;98822.00;5041174;28;20204;-79
2023/05/23 09:43:51;;;;;;;9.13;8.07;;;;;;;27.93;79.07;98824.41;5059193;28;20205;-80
2023/05/23 09:46:19;;;;;;;8.27;7.38;;;;;;;28.21;78.01;98823.56;5070521;28;20555;-79
2023/05/23 09:48:47;;;;;;;8.93;7.93;;;;;;;28.33;78.00;98826.22;5071355;28;20262;-80
2023/05/23 09:51:17;;;;;;;10.80;8.40;;;;;;;28.36;76.91;98828.28;5054829;28;20243;-80
2023/05/23 09:53:44;;;;;;;8.93;7.80;;;;;;;28.38;77.81;98823.22;5072581;28;20189;-80
2023/05/23 09:56:11;;;;;;;9.45;8.38;;;;;;;28.41;81.03;98820.56;5059495;28;20190;-81
2023/05/23 09:58:39;;;;;;;9.25;7.85;;;;;;;28.52;78.96;98825.50;5051989;28;20273;-80
2023/05/23 10:01:08;;;;;;;8.88;7.97;;;;;;;28.52;78.78;98820.00;5052374;28;20764;-80
2023/05/23 10:03:38;;;;;;;9.25;8.38;;;;;;;28.70;80.22;98808.22;5051966;28;20243;-81
2023/05/23 10:06:23;;;;;;;9.25;8.35;;;;;;;28.69;78.47;98814.13;5055337;28;20186;-80
2023/05/23 10:09:03;;;;;;;9.18;8.35;;;;;;;28.89;78.28;98818.53;5060479;28;20204;-81
2023/05/23 10:11:33;;;;;;;8.93;8.23;;;;;;;29.05;78.82;98811.03;5058588;28;20193;-81
2023/05/23 10:14:02;;;;;;;10.68;8.52;;;;;;;29.10;76.83;98813.50;5059775;28;20194;-81
2023/05/23 10:16:59;;;;;;;8.88;8.10;;;;;;;29.20;76.36;98810.16;5066460;28;20243;-80
2023/05/23 10:19:32;;;;;;;9.55;8.65;;;;;;;28.88;76.02;98805.94;5057941;28;20277;-81
2023/05/23 10:22:01;;;;;;;9.20;8.18;;;;;;;29.26;75.23;98802.38;5067316;28;20252;-80
2023/05/23 10:24:28;;;;;;;9.35;8.48;;;;;;;29.45;74.36;98796.09;5069327;28;20654;-80
2023/05/23 10:26:57;;;;;;;9.02;8.15;;;;;;;29.08;74.76;98796.50;5072333;28;20719;-81
2023/05/23 10:29:24;;;;;;;9.23;8.40;;;;;;;29.06;75.03;98795.28;5054489;28;20296;-82
2023/05/23 10:31:51;;;;;;;9.23;8.43;;;;;;;28.90;74.05;98787.03;5066715;28;20413;-81
2023/05/23 10:34:28;;;;;;;9.32;8.52;;;;;;;29.12;72.82;98789.09;5060723;28;20260;-82
2023/05/23 10:37:01;;;;;;;9.50;8.70;;;;;;;29.34;72.76;98793.13;5056787;28;20215;-82
2023/05/23 10:40:09;;;;;;;9.73;8.43;;;;;;;29.66;72.98;98778.00;5072094;28;20260;-82
2023/05/23 10:42:44;;;;;;;8.57;7.78;;;;;;;29.94;70.91;98780.50;5062883;28;20204;-82
2023/05/23 10:45:22;;;;;;;9.00;8.25;;;;;;;30.16;71.38;98774.16;5070850;28;20250;-81
2023/05/23 10:47:54;;;;;;;9.15;8.45;;;;;;;30.24;71.88;98779.78;5070862;28;20279;-82
2023/05/23 10:50:41;;;;;;;9.57;8.13;;;;;;;30.22;70.50;98769.13;5062561;28;20220;-81
2023/05/23 10:53:10;;;;;;;8.80;8.10;;;;;;;30.10;68.16;98764.56;5063796;28;20593;-82
2023/05/23 10:55:37;;;;;;;8.65;7.85;;;;;;;30.04;70.09;98766.06;5070032;28;20185;-82
2023/05/23 10:58:14;;;;;;;9.10;8.43;;;;;;;30.45;69.17;98767.16;5070898;28;20193;-81
2023/05/23 11:01:00;;;;;;;9.50;8.63;;;;;;;30.78;68.52;98763.66;5061596;28;20243;-81
2023/05/23 11:03:44;;;;;;;9.30;8.45;;;;;;;30.90;66.88;98757.09;5068593;28;20664;-82
2023/05/23 11:06:32;;;;;;;9.38;8.45;;;;;;;30.76;68.20;98748.63;5061077;28;20248;-81
2023/05/23 11:09:19;;;;;;;9.80;8.90;;;;;;;30.62;68.11;98751.97;5065959;28;20196;-80
2023/05/23 11:11:58;;;;;;;8.75;8.10;;;;;;;31.07;67.38;98739.19;5056203;28;20204;-81
2023/05/23 11:14:39;;;;;;;9.63;8.23;;;;;;;31.18;66.22;98732.59;5052061;28;20196;-79
2023/05/23 11:17:12;;;;;;;8.70;8.07;;;;;;;31.43;63.35;98730.91;5054762;28;20197;-81
2023/05/23 11:19:39;;;;;;;7.47;6.80;;;;;;;31.53;56.60;98718.34;5071126;28;20204;-80
2023/05/23 11:22:08;;;;;;;7.30;6.70;;;;;;;31.54;55.26;98714.41;5055797;28;20339;-81
2023/05/23 11:24:54;;;;;;;7.85;7.18;;;;;;;31.35;56.65;98714.59;5051485;28;20190;-81
2023/05/23 11:27:30;;;;;;;7.70;7.05;;;;;;;31.65;54.97;98712.56;5050816;28;20276;-82
2023/05/23 11:30:05;;;;;;;8.07;7.28;;;;;;;31.71;56.41;98705.50;5064741;28;20209;-81
2023/05/23 11:32:32;;;;;;;7.22;6.57;;;;;;;32.07;57.85;98703.00;5051850;28;20177;-81